Portada
METAR-TAF:

METAR-TAF

Aeropuertos :

Aeropuerto de Retalhuleu

Retalhuleu, Guatemala

latitud: 14-32N, longitud: 091-40W, altitud: 239 m

Observación

El informe se hizo hace 3 horas y 24 minutos, a las 12:00 UTC
Viento calma
Temperatura 23°C
Humedad 100%
Presión 1009 hPa
Visibilidad 10 km o más
Nubes dispersas a una altura de 1600 ft
Cielo cubierto a una altura de 8000 ft

METAR: MGRT 201200Z 00000KT 9999 SCT016 OVC080 23/23 Q1009 A2980 VOLC STA MARIA Y SATGO EN ACTV.

Hora: 09:24 (15:24 UTC)


TAF: falta

Observaciones y pronósticos meteorológicos de más de 4000 aeropuertos (mensajes METAR y TAF).

Los puntos amarillos y rojos representan las estaciones disponibles.

Ponga el ratón en el punto deseado para ver el nombre de la estación.

Haga clic para ver las observaciones y los pronósticos meteorológicos.

Para cambiar el mapa : haga clic en los botones verdes con una cruz de color negro para hacer un zoom, en el botón verde con un guión para alejar o en las flechas verdes para mapas adyacentes.


METAR-TAF: